sensor_id;sensor_type;location;lat;lon;timestamp;pressure;altitude;pressure_sealevel;temperature;humidity
58668;BME280;59852;43.086;25.634;2023-01-28T00:01:25;98410.84;;;-0.61;89.75
58668;BME280;59852;43.086;25.634;2023-01-28T00:03:51;98404.69;;;-0.30;89.90
58668;BME280;59852;43.086;25.634;2023-01-28T00:06:17;98406.81;;;-0.69;90.85
58668;BME280;59852;43.086;25.634;2023-01-28T00:08:43;98410.53;;;-0.78;90.77
58668;BME280;59852;43.086;25.634;2023-01-28T00:11:09;98407.41;;;-0.88;92.27
58668;BME280;59852;43.086;25.634;2023-01-28T00:13:35;98408.81;;;-0.77;92.30
58668;BME280;59852;43.086;25.634;2023-01-28T00:16:02;98405.09;;;-0.42;91.02
58668;BME280;59852;43.086;25.634;2023-01-28T00:18:29;98412.75;;;-0.41;90.85
58668;BME280;59852;43.086;25.634;2023-01-28T00:20:58;98415.00;;;-0.56;91.20
58668;BME280;59852;43.086;25.634;2023-01-28T00:23:24;98412.13;;;-0.74;91.50
58668;BME280;59852;43.086;25.634;2023-01-28T00:25:49;98413.16;;;-0.26;90.30
58668;BME280;59852;43.086;25.634;2023-01-28T00:28:15;98423.28;;;-0.75;90.95
58668;BME280;59852;43.086;25.634;2023-01-28T00:30:40;98427.44;;;-0.44;90.93
58668;BME280;59852;43.086;25.634;2023-01-28T00:33:05;98421.66;;;-0.77;90.78
58668;BME280;59852;43.086;25.634;2023-01-28T00:35:31;98424.16;;;-0.49;91.43
58668;BME280;59852;43.086;25.634;2023-01-28T00:37:56;98418.44;;;-0.31;90.12
58668;BME280;59852;43.086;25.634;2023-01-28T00:40:21;98429.97;;;-0.43;90.14
58668;BME280;59852;43.086;25.634;2023-01-28T00:42:47;98422.66;;;-0.28;89.74
58668;BME280;59852;43.086;25.634;2023-01-28T00:45:12;98431.59;;;-0.95;91.10
58668;BME280;59852;43.086;25.634;2023-01-28T00:47:37;98437.00;;;-0.48;91.37
58668;BME280;59852;43.086;25.634;2023-01-28T00:50:03;98440.31;;;-0.72;91.11
58668;BME280;59852;43.086;25.634;2023-01-28T00:52:28;98434.72;;;-0.57;90.96
58668;BME280;59852;43.086;25.634;2023-01-28T00:54:54;98440.47;;;-0.49;90.65
58668;BME280;59852;43.086;25.634;2023-01-28T00:57:21;98445.78;;;-0.83;90.97
58668;BME280;59852;43.086;25.634;2023-01-28T00:59:46;98450.56;;;-0.44;90.61
58668;BME280;59852;43.086;25.634;2023-01-28T01:02:12;98450.34;;;-0.93;91.19
58668;BME280;59852;43.086;25.634;2023-01-28T01:04:37;98449.91;;;-0.51;91.63
58668;BME280;59852;43.086;25.634;2023-01-28T01:07:03;98449.06;;;-0.78;91.90
58668;BME280;59852;43.086;25.634;2023-01-28T01:09:28;98456.59;;;-0.45;90.90
58668;BME280;59852;43.086;25.634;2023-01-28T01:11:53;98457.97;;;-0.62;90.47
58668;BME280;59852;43.086;25.634;2023-01-28T01:14:19;98456.19;;;-0.88;90.35
58668;BME280;59852;43.086;25.634;2023-01-28T01:16:44;98464.66;;;-0.56;91.89
58668;BME280;59852;43.086;25.634;2023-01-28T01:19:11;98457.16;;;-0.64;91.23
58668;BME280;59852;43.086;25.634;2023-01-28T01:21:37;98452.03;;;-0.64;90.92
58668;BME280;59852;43.086;25.634;2023-01-28T01:24:02;98452.00;;;-0.36;89.70
58668;BME280;59852;43.086;25.634;2023-01-28T01:26:27;98446.06;;;-0.64;89.98
58668;BME280;59852;43.086;25.634;2023-01-28T01:28:53;98449.22;;;-0.30;89.32
58668;BME280;59852;43.086;25.634;2023-01-28T01:31:19;98448.25;;;-0.80;90.38
58668;BME280;59852;43.086;25.634;2023-01-28T01:33:45;98448.66;;;-0.38;89.75
58668;BME280;59852;43.086;25.634;2023-01-28T01:36:12;98448.22;;;-0.78;90.08
58668;BME280;59852;43.086;25.634;2023-01-28T01:38:37;98443.72;;;-0.72;89.50
58668;BME280;59852;43.086;25.634;2023-01-28T01:41:03;98451.25;;;-0.66;90.16
58668;BME280;59852;43.086;25.634;2023-01-28T01:46:12;98452.63;;;-0.83;91.25
58668;BME280;59852;43.086;25.634;2023-01-28T01:48:39;98455.44;;;-0.91;91.57
58668;BME280;59852;43.086;25.634;2023-01-28T01:51:06;98452.81;;;-1.18;92.56
58668;BME280;59852;43.086;25.634;2023-01-28T01:53:33;98454.03;;;-1.01;92.92
58668;BME280;59852;43.086;25.634;2023-01-28T01:56:00;98460.41;;;-0.85;91.61
58668;BME280;59852;43.086;25.634;2023-01-28T01:58:28;98462.19;;;-0.87;91.65
58668;BME280;59852;43.086;25.634;2023-01-28T02:00:54;98457.88;;;-0.59;91.54
58668;BME280;59852;43.086;25.634;2023-01-28T02:03:22;98459.13;;;-0.44;90.74
58668;BME280;59852;43.086;25.634;2023-01-28T02:05:50;98464.47;;;-0.78;90.76
58668;BME280;59852;43.086;25.634;2023-01-28T02:08:15;98465.09;;;-0.71;91.37
58668;BME280;59852;43.086;25.634;2023-01-28T02:11:06;98465.31;;;-0.77;91.19
58668;BME280;59852;43.086;25.634;2023-01-28T02:13:33;98466.72;;;-0.41;90.67
58668;BME280;59852;43.086;25.634;2023-01-28T02:16:00;98461.09;;;-0.52;89.39
58668;BME280;59852;43.086;25.634;2023-01-28T02:18:27;98460.56;;;-0.91;92.04
58668;BME280;59852;43.086;25.634;2023-01-28T02:23:39;98469.56;;;-1.06;92.12
58668;BME280;59852;43.086;25.634;2023-01-28T02:28:44;98482.41;;;-0.48;92.20
58668;BME280;59852;43.086;25.634;2023-01-28T02:31:17;98485.44;;;-0.93;92.90
58668;BME280;59852;43.086;25.634;2023-01-28T02:38:45;98490.41;;;-0.59;91.90
58668;BME280;59852;43.086;25.634;2023-01-28T02:41:14;98488.81;;;-0.35;91.04
58668;BME280;59852;43.086;25.634;2023-01-28T02:43:43;98485.47;;;-0.65;91.86
58668;BME280;59852;43.086;25.634;2023-01-28T02:46:31;98486.03;;;-0.55;91.27
58668;BME280;59852;43.086;25.634;2023-01-28T02:49:17;98486.59;;;-0.46;90.97
58668;BME280;59852;43.086;25.634;2023-01-28T02:54:13;98497.47;;;-0.38;90.66
58668;BME280;59852;43.086;25.634;2023-01-28T03:01:59;98502.66;;;-0.39;90.34
58668;BME280;59852;43.086;25.634;2023-01-28T03:04:28;98502.56;;;-0.64;91.38
58668;BME280;59852;43.086;25.634;2023-01-28T03:06:56;98496.91;;;-0.47;90.51
58668;BME280;59852;43.086;25.634;2023-01-28T03:09:24;98501.66;;;-0.35;89.97
58668;BME280;59852;43.086;25.634;2023-01-28T03:14:57;98503.91;;;-0.80;90.66
58668;BME280;59852;43.086;25.634;2023-01-28T03:21:00;98511.78;;;-0.29;89.90
58668;BME280;59852;43.086;25.634;2023-01-28T03:24:05;98504.34;;;-0.38;89.42
58668;BME280;59852;43.086;25.634;2023-01-28T03:26:55;98509.56;;;-0.41;88.24
58668;BME280;59852;43.086;25.634;2023-01-28T03:29:41;98506.50;;;-0.82;89.66
58668;BME280;59852;43.086;25.634;2023-01-28T03:32:26;98512.00;;;-0.65;90.68
58668;BME280;59852;43.086;25.634;2023-01-28T03:35:11;98512.47;;;-0.52;90.42
58668;BME280;59852;43.086;25.634;2023-01-28T03:37:56;98517.00;;;-0.32;88.51
58668;BME280;59852;43.086;25.634;2023-01-28T03:40:24;98516.41;;;-0.98;91.12
58668;BME280;59852;43.086;25.634;2023-01-28T03:42:49;98512.41;;;-0.50;90.24
58668;BME280;59852;43.086;25.634;2023-01-28T03:45:16;98519.50;;;-0.31;89.52
58668;BME280;59852;43.086;25.634;2023-01-28T03:47:41;98520.22;;;-0.53;90.45
58668;BME280;59852;43.086;25.634;2023-01-28T03:50:08;98524.94;;;-0.40;89.31
58668;BME280;59852;43.086;25.634;2023-01-28T03:52:34;98522.06;;;-0.87;91.17
58668;BME280;59852;43.086;25.634;2023-01-28T03:54:59;98515.47;;;-0.66;91.15
58668;BME280;59852;43.086;25.634;2023-01-28T03:57:25;98521.56;;;-0.99;91.25
58668;BME280;59852;43.086;25.634;2023-01-28T03:59:51;98525.53;;;-0.89;92.19
58668;BME280;59852;43.086;25.634;2023-01-28T04:02:17;98524.41;;;-1.10;92.05
58668;BME280;59852;43.086;25.634;2023-01-28T04:04:43;98525.91;;;-1.01;92.44
58668;BME280;59852;43.086;25.634;2023-01-28T04:07:09;98530.72;;;-0.61;91.25
58668;BME280;59852;43.086;25.634;2023-01-28T04:09:35;98534.94;;;-0.59;90.24
58668;BME280;59852;43.086;25.634;2023-01-28T04:12:01;98533.63;;;-0.44;90.01
58668;BME280;59852;43.086;25.634;2023-01-28T04:14:27;98544.53;;;-0.36;89.61
58668;BME280;59852;43.086;25.634;2023-01-28T04:16:52;98542.84;;;-0.37;88.60
58668;BME280;59852;43.086;25.634;2023-01-28T04:19:19;98550.09;;;-0.51;89.41
58668;BME280;59852;43.086;25.634;2023-01-28T04:21:44;98541.13;;;-0.66;90.07
58668;BME280;59852;43.086;25.634;2023-01-28T04:24:10;98542.34;;;-0.79;91.39
58668;BME280;59852;43.086;25.634;2023-01-28T04:26:35;98536.09;;;-0.41;89.63
58668;BME280;59852;43.086;25.634;2023-01-28T04:29:01;98547.81;;;-0.90;90.92
58668;BME280;59852;43.086;25.634;2023-01-28T04:31:26;98550.72;;;-1.02;91.65
58668;BME280;59852;43.086;25.634;2023-01-28T04:33:51;98547.06;;;-0.64;90.81
58668;BME280;59852;43.086;25.634;2023-01-28T04:36:17;98544.50;;;-0.93;90.56
58668;BME280;59852;43.086;25.634;2023-01-28T04:38:42;98555.34;;;-0.83;90.93
58668;BME280;59852;43.086;25.634;2023-01-28T04:41:08;98549.88;;;-0.43;90.03
58668;BME280;59852;43.086;25.634;2023-01-28T04:43:33;98555.63;;;-0.35;89.09
58668;BME280;59852;43.086;25.634;2023-01-28T04:45:58;98559.53;;;-0.51;89.08
58668;BME280;59852;43.086;25.634;2023-01-28T04:48:24;98566.53;;;-0.27;88.37
58668;BME280;59852;43.086;25.634;2023-01-28T04:50:49;98571.06;;;-0.65;88.20
58668;BME280;59852;43.086;25.634;2023-01-28T04:53:14;98578.47;;;-0.54;88.80
58668;BME280;59852;43.086;25.634;2023-01-28T04:55:40;98574.41;;;-0.33;87.72
58668;BME280;59852;43.086;25.634;2023-01-28T04:58:05;98589.22;;;-0.71;88.98
58668;BME280;59852;43.086;25.634;2023-01-28T05:00:31;98589.78;;;-0.61;89.07
58668;BME280;59852;43.086;25.634;2023-01-28T05:02:56;98590.34;;;-0.81;89.08
58668;BME280;59852;43.086;25.634;2023-01-28T05:05:22;98595.28;;;-0.44;89.19
58668;BME280;59852;43.086;25.634;2023-01-28T05:07:51;98595.59;;;-0.54;88.18
58668;BME280;59852;43.086;25.634;2023-01-28T05:10:16;98601.84;;;-0.63;87.71
58668;BME280;59852;43.086;25.634;2023-01-28T05:12:43;98599.84;;;-0.53;88.76
58668;BME280;59852;43.086;25.634;2023-01-28T05:15:09;98603.72;;;-0.70;88.97
58668;BME280;59852;43.086;25.634;2023-01-28T05:17:34;98605.66;;;-0.76;90.40
58668;BME280;59852;43.086;25.634;2023-01-28T05:19:59;98620.97;;;-1.04;90.00
58668;BME280;59852;43.086;25.634;2023-01-28T05:22:25;98616.94;;;-1.14;90.55
58668;BME280;59852;43.086;25.634;2023-01-28T05:24:50;98612.22;;;-0.66;89.67
58668;BME280;59852;43.086;25.634;2023-01-28T05:27:15;98618.03;;;-0.61;88.42
58668;BME280;59852;43.086;25.634;2023-01-28T05:29:41;98621.66;;;-0.67;89.99
58668;BME280;59852;43.086;25.634;2023-01-28T05:32:06;98625.91;;;-0.66;88.53
58668;BME280;59852;43.086;25.634;2023-01-28T05:34:31;98632.50;;;-0.57;88.84
58668;BME280;59852;43.086;25.634;2023-01-28T05:36:57;98629.00;;;-0.54;88.49
58668;BME280;59852;43.086;25.634;2023-01-28T05:39:22;98631.94;;;-0.37;87.71
58668;BME280;59852;43.086;25.634;2023-01-28T05:41:47;98637.75;;;-0.32;87.10
58668;BME280;59852;43.086;25.634;2023-01-28T05:44:13;98638.81;;;-0.38;86.77
58668;BME280;59852;43.086;25.634;2023-01-28T05:46:38;98639.97;;;-0.80;88.29
58668;BME280;59852;43.086;25.634;2023-01-28T05:49:09;98646.09;;;-0.84;88.64
58668;BME280;59852;43.086;25.634;2023-01-28T05:51:37;98645.31;;;-0.87;89.62
58668;BME280;59852;43.086;25.634;2023-01-28T05:54:03;98644.75;;;-0.98;91.16
58668;BME280;59852;43.086;25.634;2023-01-28T05:56:28;98646.97;;;-0.54;89.72
58668;BME280;59852;43.086;25.634;2023-01-28T05:58:54;98645.16;;;-0.82;88.83
58668;BME280;59852;43.086;25.634;2023-01-28T06:01:19;98645.81;;;-0.74;89.23
58668;BME280;59852;43.086;25.634;2023-01-28T06:03:44;98661.28;;;-1.08;90.82
58668;BME280;59852;43.086;25.634;2023-01-28T06:06:10;98652.31;;;-0.62;89.77
58668;BME280;59852;43.086;25.634;2023-01-28T06:08:35;98658.47;;;-0.37;87.77
58668;BME280;59852;43.086;25.634;2023-01-28T06:11:01;98656.78;;;-0.38;87.89
58668;BME280;59852;43.086;25.634;2023-01-28T06:13:26;98659.94;;;-0.28;88.01
58668;BME280;59852;43.086;25.634;2023-01-28T06:15:52;98663.41;;;-0.29;87.61
58668;BME280;59852;43.086;25.634;2023-01-28T06:18:17;98670.63;;;-0.43;88.06
58668;BME280;59852;43.086;25.634;2023-01-28T06:20:43;98673.53;;;-0.87;89.33
58668;BME280;59852;43.086;25.634;2023-01-28T06:23:08;98675.03;;;-0.78;89.88
58668;BME280;59852;43.086;25.634;2023-01-28T06:25:33;98681.63;;;-0.69;89.19
58668;BME280;59852;43.086;25.634;2023-01-28T06:27:58;98691.28;;;-1.11;90.61
58668;BME280;59852;43.086;25.634;2023-01-28T06:30:24;98685.38;;;-0.81;91.34
58668;BME280;59852;43.086;25.634;2023-01-28T06:32:52;98689.97;;;-0.61;89.40
58668;BME280;59852;43.086;25.634;2023-01-28T06:35:18;98695.50;;;-0.44;88.73
58668;BME280;59852;43.086;25.634;2023-01-28T06:37:43;98708.22;;;-0.72;89.38
58668;BME280;59852;43.086;25.634;2023-01-28T06:40:09;98712.19;;;-0.59;89.54
58668;BME280;59852;43.086;25.634;2023-01-28T06:42:35;98701.38;;;-0.40;88.46
58668;BME280;59852;43.086;25.634;2023-01-28T06:45:00;98710.63;;;-0.97;89.28
58668;BME280;59852;43.086;25.634;2023-01-28T06:47:26;98707.31;;;-0.69;90.38
58668;BME280;59852;43.086;25.634;2023-01-28T06:49:51;98718.47;;;-0.70;89.01
58668;BME280;59852;43.086;25.634;2023-01-28T06:52:16;98723.22;;;-0.55;89.33
58668;BME280;59852;43.086;25.634;2023-01-28T06:54:42;98728.00;;;-0.43;88.13
58668;BME280;59852;43.086;25.634;2023-01-28T06:57:07;98721.28;;;-0.47;88.14
58668;BME280;59852;43.086;25.634;2023-01-28T06:59:32;98731.19;;;-0.98;90.65
58668;BME280;59852;43.086;25.634;2023-01-28T07:01:58;98733.97;;;-0.73;89.64
58668;BME280;59852;43.086;25.634;2023-01-28T07:04:23;98728.41;;;-0.56;89.63
58668;BME280;59852;43.086;25.634;2023-01-28T07:06:49;98731.34;;;-0.39;89.20
58668;BME280;59852;43.086;25.634;2023-01-28T07:09:14;98730.06;;;-0.55;88.16
58668;BME280;59852;43.086;25.634;2023-01-28T07:11:39;98738.22;;;-0.72;89.79
58668;BME280;59852;43.086;25.634;2023-01-28T07:14:05;98740.63;;;-0.66;90.13
58668;BME280;59852;43.086;25.634;2023-01-28T07:16:30;98735.16;;;-0.87;89.43
58668;BME280;59852;43.086;25.634;2023-01-28T07:18:55;98741.34;;;-0.61;88.97
58668;BME280;59852;43.086;25.634;2023-01-28T07:21:21;98751.28;;;-0.47;89.01
58668;BME280;59852;43.086;25.634;2023-01-28T07:23:46;98737.00;;;-0.59;88.76
58668;BME280;59852;43.086;25.634;2023-01-28T07:26:11;98742.47;;;-0.39;88.07
58668;BME280;59852;43.086;25.634;2023-01-28T07:28:37;98741.41;;;-0.32;87.56
58668;BME280;59852;43.086;25.634;2023-01-28T07:31:02;98740.00;;;-0.43;88.63
58668;BME280;59852;43.086;25.634;2023-01-28T07:33:27;98738.47;;;-0.18;87.88
58668;BME280;59852;43.086;25.634;2023-01-28T07:35:53;98742.88;;;-0.23;86.46
58668;BME280;59852;43.086;25.634;2023-01-28T07:38:18;98743.31;;;-0.71;88.94
58668;BME280;59852;43.086;25.634;2023-01-28T07:40:43;98745.31;;;-0.82;89.50
58668;BME280;59852;43.086;25.634;2023-01-28T07:43:09;98747.22;;;-0.90;88.91
58668;BME280;59852;43.086;25.634;2023-01-28T07:45:35;98754.09;;;-0.56;88.95
58668;BME280;59852;43.086;25.634;2023-01-28T07:48:03;98754.69;;;-0.81;88.88
58668;BME280;59852;43.086;25.634;2023-01-28T07:50:30;98751.63;;;-0.28;88.04
58668;BME280;59852;43.086;25.634;2023-01-28T07:52:57;98751.00;;;-0.07;87.18
58668;BME280;59852;43.086;25.634;2023-01-28T07:55:23;98750.97;;;-0.06;86.30
58668;BME280;59852;43.086;25.634;2023-01-28T07:57:52;98762.56;;;0.08;85.92
58668;BME280;59852;43.086;25.634;2023-01-28T08:00:18;98756.41;;;-0.16;87.44
58668;BME280;59852;43.086;25.634;2023-01-28T08:02:43;98760.41;;;-0.06;86.95
58668;BME280;59852;43.086;25.634;2023-01-28T08:05:18;98764.16;;;-0.18;86.81
58668;BME280;59852;43.086;25.634;2023-01-28T08:07:43;98753.41;;;-0.01;85.42
58668;BME280;59852;43.086;25.634;2023-01-28T08:10:10;98752.69;;;-0.06;86.27
58668;BME280;59852;43.086;25.634;2023-01-28T08:12:35;98747.66;;;-0.11;86.24
58668;BME280;59852;43.086;25.634;2023-01-28T08:15:01;98756.88;;;-0.33;87.58
58668;BME280;59852;43.086;25.634;2023-01-28T08:17:26;98757.88;;;-0.08;87.43
58668;BME280;59852;43.086;25.634;2023-01-28T08:19:52;98752.03;;;0.17;85.01
58668;BME280;59852;43.086;25.634;2023-01-28T08:22:17;98758.97;;;-0.47;86.44
58668;BME280;59852;43.086;25.634;2023-01-28T08:24:42;98752.72;;;-0.37;87.58
58668;BME280;59852;43.086;25.634;2023-01-28T08:27:08;98758.41;;;-0.26;86.39
58668;BME280;59852;43.086;25.634;2023-01-28T08:29:33;98764.31;;;-0.55;87.72
58668;BME280;59852;43.086;25.634;2023-01-28T08:31:58;98762.44;;;-0.50;87.29
58668;BME280;59852;43.086;25.634;2023-01-28T08:34:23;98763.22;;;-0.46;87.34
58668;BME280;59852;43.086;25.634;2023-01-28T08:36:49;98765.22;;;-0.25;86.98
58668;BME280;59852;43.086;25.634;2023-01-28T08:39:14;98758.69;;;-0.06;85.93
58668;BME280;59852;43.086;25.634;2023-01-28T08:41:39;98763.66;;;0.01;83.76
58668;BME280;59852;43.086;25.634;2023-01-28T08:44:05;98761.66;;;-0.19;83.62
58668;BME280;59852;43.086;25.634;2023-01-28T08:46:30;98765.16;;;-0.23;83.03
58668;BME280;59852;43.086;25.634;2023-01-28T08:48:55;98754.84;;;-0.22;83.25
58668;BME280;59852;43.086;25.634;2023-01-28T08:51:21;98750.97;;;-0.06;82.94
58668;BME280;59852;43.086;25.634;2023-01-28T08:53:46;98750.59;;;-0.23;84.52
58668;BME280;59852;43.086;25.634;2023-01-28T08:56:11;98748.50;;;-0.10;85.13
58668;BME280;59852;43.086;25.634;2023-01-28T08:58:38;98744.31;;;0.17;85.63
58668;BME280;59852;43.086;25.634;2023-01-28T09:01:05;98754.22;;;-0.01;84.77
58668;BME280;59852;43.086;25.634;2023-01-28T09:03:31;98758.72;;;-0.07;85.19
58668;BME280;59852;43.086;25.634;2023-01-28T09:06:00;98761.88;;;0.03;85.67
58668;BME280;59852;43.086;25.634;2023-01-28T09:08:26;98760.16;;;0.03;85.27
58668;BME280;59852;43.086;25.634;2023-01-28T09:10:55;98755.94;;;0.01;84.72
58668;BME280;59852;43.086;25.634;2023-01-28T09:13:20;98761.47;;;-0.44;85.45
58668;BME280;59852;43.086;25.634;2023-01-28T09:15:46;98757.41;;;-0.22;86.25
58668;BME280;59852;43.086;25.634;2023-01-28T09:18:11;98759.06;;;-0.19;86.33
58668;BME280;59852;43.086;25.634;2023-01-28T09:20:36;98755.47;;;-0.14;86.50
58668;BME280;59852;43.086;25.634;2023-01-28T09:23:02;98757.25;;;-0.16;86.43
58668;BME280;59852;43.086;25.634;2023-01-28T09:25:28;98756.56;;;-0.22;86.93
58668;BME280;59852;43.086;25.634;2023-01-28T09:27:53;98754.78;;;-0.19;87.25
58668;BME280;59852;43.086;25.634;2023-01-28T09:30:18;98758.84;;;-0.43;87.33
58668;BME280;59852;43.086;25.634;2023-01-28T09:32:44;98758.09;;;-0.46;87.81
58668;BME280;59852;43.086;25.634;2023-01-28T09:35:09;98750.78;;;-0.29;88.41
58668;BME280;59852;43.086;25.634;2023-01-28T09:37:35;98753.00;;;-0.17;88.07
58668;BME280;59852;43.086;25.634;2023-01-28T09:40:01;98747.06;;;-0.19;86.88
58668;BME280;59852;43.086;25.634;2023-01-28T09:45:15;98738.88;;;-0.33;88.06
58668;BME280;59852;43.086;25.634;2023-01-28T09:47:46;98747.97;;;-0.21;87.63
58668;BME280;59852;43.086;25.634;2023-01-28T09:50:31;98752.06;;;0.15;87.22
58668;BME280;59852;43.086;25.634;2023-01-28T09:56:03;98761.47;;;-0.13;87.75
58668;BME280;59852;43.086;25.634;2023-01-28T09:58:27;98751.41;;;0.09;86.79
58668;BME280;59852;43.086;25.634;2023-01-28T10:19:46;98762.13;;;-0.07;86.35
58668;BME280;59852;43.086;25.634;2023-01-28T10:22:19;98761.78;;;0.06;86.08
58668;BME280;59852;43.086;25.634;2023-01-28T10:24:48;98758.31;;;0.07;86.72
58668;BME280;59852;43.086;25.634;2023-01-28T10:27:22;98759.44;;;-0.02;85.61
58668;BME280;59852;43.086;25.634;2023-01-28T10:29:48;98763.63;;;-0.29;86.10
58668;BME280;59852;43.086;25.634;2023-01-28T10:34:42;98762.16;;;0.23;84.40
58668;BME280;59852;43.086;25.634;2023-01-28T10:37:14;98761.00;;;-0.27;85.20
58668;BME280;59852;43.086;25.634;2023-01-28T10:39:40;98761.22;;;-0.35;84.99
58668;BME280;59852;43.086;25.634;2023-01-28T10:42:16;98765.31;;;-0.30;85.87
58668;BME280;59852;43.086;25.634;2023-01-28T10:44:44;98761.53;;;0.15;83.98
58668;BME280;59852;43.086;25.634;2023-01-28T10:47:13;98761.38;;;0.19;83.20
58668;BME280;59852;43.086;25.634;2023-01-28T10:49:45;98767.03;;;0.32;83.95
58668;BME280;59852;43.086;25.634;2023-01-28T10:52:12;98769.44;;;0.07;83.51
58668;BME280;59852;43.086;25.634;2023-01-28T10:54:37;98766.81;;;0.10;84.27
58668;BME280;59852;43.086;25.634;2023-01-28T10:57:04;98770.34;;;0.06;85.10
58668;BME280;59852;43.086;25.634;2023-01-28T10:59:32;98771.06;;;0.11;85.63
58668;BME280;59852;43.086;25.634;2023-01-28T11:01:59;98766.59;;;0.46;85.43
58668;BME280;59852;43.086;25.634;2023-01-28T11:04:29;98766.88;;;0.37;86.05
58668;BME280;59852;43.086;25.634;2023-01-28T11:06:56;98765.47;;;0.26;86.58
58668;BME280;59852;43.086;25.634;2023-01-28T11:09:23;98770.78;;;-0.09;88.23
58668;BME280;59852;43.086;25.634;2023-01-28T11:11:49;98769.06;;;-0.09;89.27
58668;BME280;59852;43.086;25.634;2023-01-28T11:14:21;98765.75;;;-0.14;88.76
58668;BME280;59852;43.086;25.634;2023-01-28T11:16:47;98762.63;;;0.06;88.86
58668;BME280;59852;43.086;25.634;2023-01-28T11:19:13;98756.59;;;0.37;87.61
58668;BME280;59852;43.086;25.634;2023-01-28T11:21:38;98761.13;;;0.56;87.04
58668;BME280;59852;43.086;25.634;2023-01-28T11:24:13;98755.28;;;0.51;86.97
58668;BME280;59852;43.086;25.634;2023-01-28T11:26:42;98756.00;;;0.27;87.40
58668;BME280;59852;43.086;25.634;2023-01-28T11:29:25;98769.06;;;0.21;88.85
58668;BME280;59852;43.086;25.634;2023-01-28T11:31:51;98767.53;;;0.43;88.25
58668;BME280;59852;43.086;25.634;2023-01-28T11:34:17;98762.72;;;0.61;87.21
58668;BME280;59852;43.086;25.634;2023-01-28T11:36:53;98757.63;;;0.59;86.60
58668;BME280;59852;43.086;25.634;2023-01-28T11:39:20;98756.28;;;0.18;86.45
58668;BME280;59852;43.086;25.634;2023-01-28T11:41:46;98757.31;;;-0.17;88.24
58668;BME280;59852;43.086;25.634;2023-01-28T11:51:39;98760.88;;;0.36;87.79
58668;BME280;59852;43.086;25.634;2023-01-28T11:56:47;98767.06;;;0.01;88.89
58668;BME280;59852;43.086;25.634;2023-01-28T11:59:24;98770.78;;;-0.09;89.29
58668;BME280;59852;43.086;25.634;2023-01-28T12:04:43;98775.81;;;0.25;89.42
58668;BME280;59852;43.086;25.634;2023-01-28T12:07:15;98770.13;;;0.43;87.98
58668;BME280;59852;43.086;25.634;2023-01-28T12:33:33;98772.13;;;0.34;88.19
58668;BME280;59852;43.086;25.634;2023-01-28T12:38:45;98770.81;;;0.19;89.07
58668;BME280;59852;43.086;25.634;2023-01-28T12:41:17;98777.22;;;0.06;89.07
58668;BME280;59852;43.086;25.634;2023-01-28T12:46:27;98784.88;;;0.07;88.94
58668;BME280;59852;43.086;25.634;2023-01-28T12:48:59;98781.31;;;0.13;88.94
58668;BME280;59852;43.086;25.634;2023-01-28T12:51:41;98779.63;;;0.12;89.58
58668;BME280;59852;43.086;25.634;2023-01-28T12:54:11;98783.81;;;0.14;89.18
58668;BME280;59852;43.086;25.634;2023-01-28T12:56:40;98782.63;;;-0.04;89.07
58668;BME280;59852;43.086;25.634;2023-01-28T12:59:12;98785.28;;;0.23;88.44
58668;BME280;59852;43.086;25.634;2023-01-28T13:01:41;98791.06;;;0.31;88.39
58668;BME280;59852;43.086;25.634;2023-01-28T13:04:11;98792.97;;;0.24;88.21
58668;BME280;59852;43.086;25.634;2023-01-28T13:06:41;98791.13;;;0.57;86.43
58668;BME280;59852;43.086;25.634;2023-01-28T13:09:18;98790.81;;;0.40;87.54
58668;BME280;59852;43.086;25.634;2023-01-28T13:11:44;98788.56;;;0.28;88.45
58668;BME280;59852;43.086;25.634;2023-01-28T13:14:10;98796.13;;;0.34;88.96
58668;BME280;59852;43.086;25.634;2023-01-28T13:16:36;98801.31;;;0.33;88.95
58668;BME280;59852;43.086;25.634;2023-01-28T13:19:08;98805.28;;;0.43;89.59
58668;BME280;59852;43.086;25.634;2023-01-28T13:21:45;98796.81;;;0.39;88.16
58668;BME280;59852;43.086;25.634;2023-01-28T13:31:43;98808.91;;;0.65;88.54
58668;BME280;59852;43.086;25.634;2023-01-28T13:34:24;98814.47;;;0.22;89.71
58668;BME280;59852;43.086;25.634;2023-01-28T13:36:50;98822.69;;;0.35;89.85
58668;BME280;59852;43.086;25.634;2023-01-28T13:39:20;98817.38;;;0.69;89.36
58668;BME280;59852;43.086;25.634;2023-01-28T13:41:47;98818.19;;;0.71;88.71
58668;BME280;59852;43.086;25.634;2023-01-28T13:44:25;98820.16;;;0.63;89.19
58668;BME280;59852;43.086;25.634;2023-01-28T13:46:51;98821.56;;;0.43;88.42
58668;BME280;59852;43.086;25.634;2023-01-28T13:49:31;98823.28;;;0.72;88.41
58668;BME280;59852;43.086;25.634;2023-01-28T13:52:06;98820.09;;;0.05;90.08
58668;BME280;59852;43.086;25.634;2023-01-28T13:54:39;98825.59;;;0.22;91.78
58668;BME280;59852;43.086;25.634;2023-01-28T13:59:53;98826.88;;;0.37;91.07
58668;BME280;59852;43.086;25.634;2023-01-28T14:15:19;98838.91;;;0.37;91.09
58668;BME280;59852;43.086;25.634;2023-01-28T14:17:50;98832.13;;;0.34;90.86
58668;BME280;59852;43.086;25.634;2023-01-28T14:20:20;98836.25;;;0.09;92.05
58668;BME280;59852;43.086;25.634;2023-01-28T14:22:46;98838.59;;;-0.13;93.23
58668;BME280;59852;43.086;25.634;2023-01-28T14:25:17;98839.88;;;0.03;93.62
58668;BME280;59852;43.086;25.634;2023-01-28T14:27:46;98846.84;;;-0.02;92.96
58668;BME280;59852;43.086;25.634;2023-01-28T14:30:19;98840.25;;;0.19;92.55
58668;BME280;59852;43.086;25.634;2023-01-28T14:32:49;98838.84;;;0.40;92.13
58668;BME280;59852;43.086;25.634;2023-01-28T14:35:27;98839.41;;;0.49;91.20
58668;BME280;59852;43.086;25.634;2023-01-28T14:37:54;98842.22;;;0.42;91.21
58668;BME280;59852;43.086;25.634;2023-01-28T14:40:21;98841.09;;;0.21;92.13
58668;BME280;59852;43.086;25.634;2023-01-28T14:42:48;98842.28;;;0.08;92.37
58668;BME280;59852;43.086;25.634;2023-01-28T14:55:25;98853.59;;;0.33;92.38
58668;BME280;59852;43.086;25.634;2023-01-28T14:57:55;98854.88;;;0.48;91.29
58668;BME280;59852;43.086;25.634;2023-01-28T15:00:27;98856.47;;;0.22;91.77
58668;BME280;59852;43.086;25.634;2023-01-28T15:02:53;98854.59;;;-0.04;93.38
58668;BME280;59852;43.086;25.634;2023-01-28T15:05:20;98861.66;;;0.21;93.57